sensor_id;sensor_type;location;lat;lon;timestamp;P1;durP1;ratioP1;P2;durP2;ratioP2
17604;SDS011;8921;50.964;6.800;2023-02-28T00:01:06;5.20;;;3.37;;
17604;SDS011;8921;50.964;6.800;2023-02-28T00:03:34;7.70;;;3.60;;
17604;SDS011;8921;50.964;6.800;2023-02-28T00:06:03;9.37;;;4.20;;
17604;SDS011;8921;50.964;6.800;2023-02-28T00:08:31;9.40;;;4.00;;
17604;SDS011;8921;50.964;6.800;2023-02-28T00:11:03;10.80;;;5.00;;
17604;SDS011;8921;50.964;6.800;2023-02-28T00:13:31;5.92;;;3.45;;
17604;SDS011;8921;50.964;6.800;2023-02-28T00:16:00;7.03;;;3.53;;
17604;SDS011;8921;50.964;6.800;2023-02-28T00:18:27;6.87;;;3.90;;
17604;SDS011;8921;50.964;6.800;2023-02-28T00:20:56;7.90;;;4.50;;
17604;SDS011;8921;50.964;6.800;2023-02-28T00:23:24;6.08;;;3.12;;
17604;SDS011;8921;50.964;6.800;2023-02-28T00:25:52;7.67;;;3.73;;
17604;SDS011;8921;50.964;6.800;2023-02-28T00:28:20;7.67;;;3.77;;
17604;SDS011;8921;50.964;6.800;2023-02-28T00:30:49;6.93;;;4.37;;
17604;SDS011;8921;50.964;6.800;2023-02-28T00:33:17;6.97;;;4.00;;
17604;SDS011;8921;50.964;6.800;2023-02-28T00:35:45;7.80;;;4.50;;
17604;SDS011;8921;50.964;6.800;2023-02-28T00:38:14;8.50;;;5.30;;
17604;SDS011;8921;50.964;6.800;2023-02-28T00:40:42;7.37;;;4.00;;
17604;SDS011;8921;50.964;6.800;2023-02-28T00:43:10;8.07;;;3.57;;
17604;SDS011;8921;50.964;6.800;2023-02-28T00:45:38;5.93;;;3.80;;
17604;SDS011;8921;50.964;6.800;2023-02-28T00:48:07;10.37;;;4.23;;
17604;SDS011;8921;50.964;6.800;2023-02-28T00:50:35;9.13;;;3.90;;
17604;SDS011;8921;50.964;6.800;2023-02-28T00:53:03;6.57;;;3.73;;
17604;SDS011;8921;50.964;6.800;2023-02-28T00:55:32;9.23;;;3.97;;
17604;SDS011;8921;50.964;6.800;2023-02-28T00:58:00;6.83;;;3.53;;
17604;SDS011;8921;50.964;6.800;2023-02-28T01:00:28;5.77;;;3.17;;
17604;SDS011;8921;50.964;6.800;2023-02-28T01:02:57;8.77;;;4.50;;
17604;SDS011;8921;50.964;6.800;2023-02-28T01:05:25;8.60;;;4.40;;
17604;SDS011;8921;50.964;6.800;2023-02-28T01:07:53;6.73;;;3.70;;
17604;SDS011;8921;50.964;6.800;2023-02-28T01:10:22;7.95;;;4.42;;
17604;SDS011;8921;50.964;6.800;2023-02-28T01:12:50;8.90;;;4.20;;
17604;SDS011;8921;50.964;6.800;2023-02-28T01:15:18;9.27;;;4.50;;
17604;SDS011;8921;50.964;6.800;2023-02-28T01:17:46;9.60;;;4.90;;
17604;SDS011;8921;50.964;6.800;2023-02-28T01:20:15;7.60;;;4.53;;
17604;SDS011;8921;50.964;6.800;2023-02-28T01:22:43;9.33;;;4.10;;
17604;SDS011;8921;50.964;6.800;2023-02-28T01:25:12;8.23;;;3.93;;
17604;SDS011;8921;50.964;6.800;2023-02-28T01:27:40;8.57;;;4.33;;
17604;SDS011;8921;50.964;6.800;2023-02-28T01:30:08;11.53;;;5.00;;
17604;SDS011;8921;50.964;6.800;2023-02-28T01:32:37;6.67;;;3.90;;
17604;SDS011;8921;50.964;6.800;2023-02-28T01:35:05;6.43;;;4.10;;
17604;SDS011;8921;50.964;6.800;2023-02-28T01:37:33;7.37;;;4.58;;
17604;SDS011;8921;50.964;6.800;2023-02-28T01:40:02;8.53;;;4.20;;
17604;SDS011;8921;50.964;6.800;2023-02-28T01:42:30;9.53;;;4.10;;
17604;SDS011;8921;50.964;6.800;2023-02-28T01:45:03;8.57;;;4.80;;
17604;SDS011;8921;50.964;6.800;2023-02-28T01:47:36;10.20;;;5.13;;
17604;SDS011;8921;50.964;6.800;2023-02-28T01:50:06;9.20;;;5.13;;
17604;SDS011;8921;50.964;6.800;2023-02-28T01:52:32;6.63;;;3.80;;
17604;SDS011;8921;50.964;6.800;2023-02-28T01:55:01;6.80;;;4.17;;
17604;SDS011;8921;50.964;6.800;2023-02-28T01:57:30;8.23;;;4.20;;
17604;SDS011;8921;50.964;6.800;2023-02-28T01:59:58;7.05;;;3.42;;
17604;SDS011;8921;50.964;6.800;2023-02-28T02:02:26;6.33;;;3.43;;
17604;SDS011;8921;50.964;6.800;2023-02-28T02:04:55;5.57;;;3.57;;
17604;SDS011;8921;50.964;6.800;2023-02-28T02:07:32;5.43;;;3.60;;
17604;SDS011;8921;50.964;6.800;2023-02-28T02:10:00;10.53;;;3.80;;
17604;SDS011;8921;50.964;6.800;2023-02-28T02:12:38;8.60;;;3.67;;
17604;SDS011;8921;50.964;6.800;2023-02-28T02:17:59;6.37;;;3.57;;
17604;SDS011;8921;50.964;6.800;2023-02-28T02:20:38;8.30;;;3.60;;
17604;SDS011;8921;50.964;6.800;2023-02-28T02:25:38;7.37;;;4.10;;
17604;SDS011;8921;50.964;6.800;2023-02-28T02:31:27;6.60;;;3.80;;
17604;SDS011;8921;50.964;6.800;2023-02-28T02:39:48;7.90;;;4.57;;
17604;SDS011;8921;50.964;6.800;2023-02-28T02:42:36;8.27;;;4.33;;
17604;SDS011;8921;50.964;6.800;2023-02-28T02:45:32;7.03;;;3.45;;
17604;SDS011;8921;50.964;6.800;2023-02-28T02:48:03;7.10;;;3.80;;
17604;SDS011;8921;50.964;6.800;2023-02-28T02:50:34;6.60;;;3.67;;
17604;SDS011;8921;50.964;6.800;2023-02-28T02:53:00;8.20;;;3.23;;
17604;SDS011;8921;50.964;6.800;2023-02-28T02:55:27;8.40;;;4.00;;
17604;SDS011;8921;50.964;6.800;2023-02-28T02:57:58;8.50;;;3.67;;
17604;SDS011;8921;50.964;6.800;2023-02-28T03:00:29;8.03;;;3.77;;
17604;SDS011;8921;50.964;6.800;2023-02-28T03:02:55;8.10;;;3.00;;
17604;SDS011;8921;50.964;6.800;2023-02-28T03:05:24;6.67;;;3.33;;
17604;SDS011;8921;50.964;6.800;2023-02-28T03:07:51;14.18;;;4.10;;
17604;SDS011;8921;50.964;6.800;2023-02-28T03:10:30;12.20;;;3.90;;
17604;SDS011;8921;50.964;6.800;2023-02-28T03:13:03;6.73;;;3.43;;
17604;SDS011;8921;50.964;6.800;2023-02-28T03:15:30;7.13;;;3.40;;
17604;SDS011;8921;50.964;6.800;2023-02-28T03:18:08;6.03;;;3.80;;
17604;SDS011;8921;50.964;6.800;2023-02-28T03:23:17;10.87;;;3.80;;
17604;SDS011;8921;50.964;6.800;2023-02-28T03:26:04;6.43;;;3.77;;
17604;SDS011;8921;50.964;6.800;2023-02-28T03:33:38;6.37;;;3.67;;
17604;SDS011;8921;50.964;6.800;2023-02-28T03:36:09;7.40;;;4.30;;
17604;SDS011;8921;50.964;6.800;2023-02-28T03:41:06;6.57;;;3.93;;
17604;SDS011;8921;50.964;6.800;2023-02-28T03:43:34;10.33;;;4.80;;
17604;SDS011;8921;50.964;6.800;2023-02-28T03:46:02;6.90;;;4.17;;
17604;SDS011;8921;50.964;6.800;2023-02-28T03:48:31;8.70;;;4.30;;
17604;SDS011;8921;50.964;6.800;2023-02-28T03:50:58;6.83;;;3.83;;
17604;SDS011;8921;50.964;6.800;2023-02-28T03:53:32;7.90;;;4.33;;
17604;SDS011;8921;50.964;6.800;2023-02-28T03:56:19;8.60;;;3.93;;
17604;SDS011;8921;50.964;6.800;2023-02-28T04:01:44;5.43;;;3.80;;
17604;SDS011;8921;50.964;6.800;2023-02-28T04:04:11;6.07;;;4.00;;
17604;SDS011;8921;50.964;6.800;2023-02-28T04:06:39;7.05;;;3.67;;
17604;SDS011;8921;50.964;6.800;2023-02-28T04:09:08;8.57;;;4.33;;
17604;SDS011;8921;50.964;6.800;2023-02-28T04:11:39;8.53;;;4.58;;
17604;SDS011;8921;50.964;6.800;2023-02-28T04:14:10;11.47;;;5.20;;
17604;SDS011;8921;50.964;6.800;2023-02-28T04:16:39;14.07;;;8.23;;
17604;SDS011;8921;50.964;6.800;2023-02-28T04:19:07;11.70;;;6.27;;
17604;SDS011;8921;50.964;6.800;2023-02-28T04:21:41;11.90;;;5.40;;
17604;SDS011;8921;50.964;6.800;2023-02-28T04:24:09;9.17;;;5.77;;
17604;SDS011;8921;50.964;6.800;2023-02-28T04:26:37;14.00;;;6.57;;
17604;SDS011;8921;50.964;6.800;2023-02-28T04:29:05;16.23;;;6.07;;
17604;SDS011;8921;50.964;6.800;2023-02-28T04:31:33;9.83;;;5.10;;
17604;SDS011;8921;50.964;6.800;2023-02-28T04:34:02;8.05;;;5.20;;
17604;SDS011;8921;50.964;6.800;2023-02-28T04:36:30;7.60;;;4.63;;
17604;SDS011;8921;50.964;6.800;2023-02-28T04:38:58;8.88;;;5.33;;
17604;SDS011;8921;50.964;6.800;2023-02-28T04:41:26;7.27;;;4.83;;
17604;SDS011;8921;50.964;6.800;2023-02-28T04:43:55;8.80;;;5.00;;
17604;SDS011;8921;50.964;6.800;2023-02-28T04:46:23;9.00;;;5.00;;
17604;SDS011;8921;50.964;6.800;2023-02-28T04:48:51;9.10;;;4.90;;
17604;SDS011;8921;50.964;6.800;2023-02-28T04:51:20;8.23;;;4.70;;
17604;SDS011;8921;50.964;6.800;2023-02-28T04:53:48;10.17;;;4.97;;
17604;SDS011;8921;50.964;6.800;2023-02-28T04:56:17;9.60;;;5.27;;
17604;SDS011;8921;50.964;6.800;2023-02-28T04:58:45;9.10;;;5.30;;
17604;SDS011;8921;50.964;6.800;2023-02-28T05:01:20;17.60;;;5.70;;
17604;SDS011;8921;50.964;6.800;2023-02-28T05:03:47;7.87;;;5.10;;
17604;SDS011;8921;50.964;6.800;2023-02-28T05:06:15;11.03;;;5.80;;
17604;SDS011;8921;50.964;6.800;2023-02-28T05:08:44;8.20;;;5.13;;
17604;SDS011;8921;50.964;6.800;2023-02-28T05:13:46;7.70;;;4.77;;
17604;SDS011;8921;50.964;6.800;2023-02-28T05:16:15;9.43;;;5.40;;
17604;SDS011;8921;50.964;6.800;2023-02-28T05:18:43;13.80;;;5.70;;
17604;SDS011;8921;50.964;6.800;2023-02-28T05:21:22;7.75;;;5.20;;
17604;SDS011;8921;50.964;6.800;2023-02-28T05:23:55;12.23;;;4.67;;
17604;SDS011;8921;50.964;6.800;2023-02-28T05:26:23;14.10;;;5.00;;
17604;SDS011;8921;50.964;6.800;2023-02-28T05:28:51;9.25;;;5.28;;
17604;SDS011;8921;50.964;6.800;2023-02-28T05:31:19;8.40;;;5.60;;
17604;SDS011;8921;50.964;6.800;2023-02-28T05:33:48;25.77;;;10.97;;
17604;SDS011;8921;50.964;6.800;2023-02-28T05:36:16;6.43;;;4.80;;
17604;SDS011;8921;50.964;6.800;2023-02-28T05:38:47;8.70;;;5.70;;
17604;SDS011;8921;50.964;6.800;2023-02-28T05:41:16;8.43;;;5.40;;
17604;SDS011;8921;50.964;6.800;2023-02-28T05:43:44;8.50;;;5.33;;
17604;SDS011;8921;50.964;6.800;2023-02-28T05:46:12;10.47;;;5.20;;
17604;SDS011;8921;50.964;6.800;2023-02-28T05:48:41;7.77;;;5.00;;
17604;SDS011;8921;50.964;6.800;2023-02-28T05:51:09;11.23;;;4.93;;
17604;SDS011;8921;50.964;6.800;2023-02-28T05:53:37;6.37;;;4.55;;
17604;SDS011;8921;50.964;6.800;2023-02-28T05:56:06;8.00;;;4.77;;
17604;SDS011;8921;50.964;6.800;2023-02-28T05:58:34;13.00;;;5.37;;
17604;SDS011;8921;50.964;6.800;2023-02-28T06:01:22;13.13;;;5.00;;
17604;SDS011;8921;50.964;6.800;2023-02-28T06:03:52;10.73;;;5.10;;
17604;SDS011;8921;50.964;6.800;2023-02-28T06:06:20;8.60;;;4.92;;
17604;SDS011;8921;50.964;6.800;2023-02-28T06:08:49;6.53;;;4.30;;
17604;SDS011;8921;50.964;6.800;2023-02-28T06:11:17;8.50;;;4.40;;
17604;SDS011;8921;50.964;6.800;2023-02-28T06:13:45;12.78;;;5.50;;
17604;SDS011;8921;50.964;6.800;2023-02-28T06:16:13;9.97;;;4.67;;
17604;SDS011;8921;50.964;6.800;2023-02-28T06:18:42;9.20;;;4.87;;
17604;SDS011;8921;50.964;6.800;2023-02-28T06:21:11;9.15;;;5.10;;
17604;SDS011;8921;50.964;6.800;2023-02-28T06:23:38;11.73;;;4.90;;
17604;SDS011;8921;50.964;6.800;2023-02-28T06:26:07;8.90;;;5.13;;
17604;SDS011;8921;50.964;6.800;2023-02-28T06:28:35;11.83;;;4.80;;
17604;SDS011;8921;50.964;6.800;2023-02-28T06:31:07;7.90;;;4.30;;
17604;SDS011;8921;50.964;6.800;2023-02-28T06:33:35;8.73;;;4.70;;
17604;SDS011;8921;50.964;6.800;2023-02-28T06:36:03;10.00;;;4.75;;
17604;SDS011;8921;50.964;6.800;2023-02-28T06:38:31;9.60;;;4.00;;
17604;SDS011;8921;50.964;6.800;2023-02-28T06:41:00;8.83;;;4.55;;
17604;SDS011;8921;50.964;6.800;2023-02-28T06:43:28;10.20;;;5.17;;
17604;SDS011;8921;50.964;6.800;2023-02-28T06:45:59;10.23;;;4.27;;
17604;SDS011;8921;50.964;6.800;2023-02-28T06:48:27;9.90;;;4.30;;
17604;SDS011;8921;50.964;6.800;2023-02-28T06:51:02;5.77;;;3.63;;
17604;SDS011;8921;50.964;6.800;2023-02-28T06:53:33;6.50;;;3.70;;
17604;SDS011;8921;50.964;6.800;2023-02-28T06:56:04;14.23;;;4.37;;
17604;SDS011;8921;50.964;6.800;2023-02-28T06:58:35;8.53;;;4.20;;
17604;SDS011;8921;50.964;6.800;2023-02-28T07:01:03;6.60;;;4.30;;
17604;SDS011;8921;50.964;6.800;2023-02-28T07:03:31;6.63;;;3.80;;
17604;SDS011;8921;50.964;6.800;2023-02-28T07:06:00;7.83;;;4.03;;
17604;SDS011;8921;50.964;6.800;2023-02-28T07:08:28;8.10;;;3.53;;
17604;SDS011;8921;50.964;6.800;2023-02-28T07:10:56;8.63;;;3.67;;
17604;SDS011;8921;50.964;6.800;2023-02-28T07:13:25;6.50;;;3.83;;
17604;SDS011;8921;50.964;6.800;2023-02-28T07:15:56;7.00;;;3.60;;
17604;SDS011;8921;50.964;6.800;2023-02-28T07:18:24;7.03;;;3.80;;
17604;SDS011;8921;50.964;6.800;2023-02-28T07:20:52;6.23;;;3.80;;
17604;SDS011;8921;50.964;6.800;2023-02-28T07:23:21;5.87;;;3.37;;
17604;SDS011;8921;50.964;6.800;2023-02-28T07:25:49;4.73;;;2.60;;
17604;SDS011;8921;50.964;6.800;2023-02-28T07:28:17;7.27;;;3.87;;
17604;SDS011;8921;50.964;6.800;2023-02-28T07:30:45;5.60;;;3.50;;
17604;SDS011;8921;50.964;6.800;2023-02-28T07:33:14;6.73;;;3.80;;
17604;SDS011;8921;50.964;6.800;2023-02-28T07:35:42;8.03;;;3.57;;
17604;SDS011;8921;50.964;6.800;2023-02-28T07:38:10;7.77;;;3.70;;
17604;SDS011;8921;50.964;6.800;2023-02-28T07:40:39;7.10;;;3.73;;
17604;SDS011;8921;50.964;6.800;2023-02-28T07:43:07;5.70;;;2.97;;
17604;SDS011;8921;50.964;6.800;2023-02-28T07:45:35;7.87;;;4.40;;
17604;SDS011;8921;50.964;6.800;2023-02-28T07:48:03;8.93;;;4.47;;
17604;SDS011;8921;50.964;6.800;2023-02-28T07:50:32;5.63;;;3.83;;
17604;SDS011;8921;50.964;6.800;2023-02-28T07:53:00;8.23;;;4.07;;
17604;SDS011;8921;50.964;6.800;2023-02-28T07:55:28;5.60;;;3.50;;
17604;SDS011;8921;50.964;6.800;2023-02-28T07:57:57;5.30;;;3.20;;
17604;SDS011;8921;50.964;6.800;2023-02-28T08:00:25;6.20;;;3.77;;
17604;SDS011;8921;50.964;6.800;2023-02-28T08:02:53;6.57;;;3.27;;
17604;SDS011;8921;50.964;6.800;2023-02-28T08:05:21;5.20;;;3.53;;
17604;SDS011;8921;50.964;6.800;2023-02-28T08:07:50;6.20;;;3.77;;
17604;SDS011;8921;50.964;6.800;2023-02-28T08:10:18;7.60;;;3.47;;
17604;SDS011;8921;50.964;6.800;2023-02-28T08:12:46;5.90;;;2.93;;
17604;SDS011;8921;50.964;6.800;2023-02-28T08:15:15;6.50;;;4.07;;
17604;SDS011;8921;50.964;6.800;2023-02-28T08:17:43;10.50;;;4.30;;
17604;SDS011;8921;50.964;6.800;2023-02-28T08:20:11;7.10;;;3.07;;
17604;SDS011;8921;50.964;6.800;2023-02-28T08:22:40;6.43;;;3.57;;
17604;SDS011;8921;50.964;6.800;2023-02-28T08:25:08;5.63;;;2.80;;
17604;SDS011;8921;50.964;6.800;2023-02-28T08:27:36;8.63;;;2.90;;
17604;SDS011;8921;50.964;6.800;2023-02-28T08:30:05;6.23;;;2.53;;
17604;SDS011;8921;50.964;6.800;2023-02-28T08:32:33;6.27;;;3.10;;
17604;SDS011;8921;50.964;6.800;2023-02-28T08:35:02;5.25;;;2.92;;
17604;SDS011;8921;50.964;6.800;2023-02-28T08:37:30;5.50;;;3.30;;
17604;SDS011;8921;50.964;6.800;2023-02-28T08:39:58;4.20;;;2.00;;
17604;SDS011;8921;50.964;6.800;2023-02-28T08:42:27;6.03;;;2.70;;
17604;SDS011;8921;50.964;6.800;2023-02-28T08:44:55;4.93;;;2.90;;
17604;SDS011;8921;50.964;6.800;2023-02-28T08:47:23;5.00;;;2.47;;
17604;SDS011;8921;50.964;6.800;2023-02-28T08:49:51;5.20;;;2.73;;
17604;SDS011;8921;50.964;6.800;2023-02-28T08:52:20;4.43;;;2.33;;
17604;SDS011;8921;50.964;6.800;2023-02-28T08:57:35;5.03;;;2.37;;
17604;SDS011;8921;50.964;6.800;2023-02-28T09:00:04;13.93;;;3.53;;
17604;SDS011;8921;50.964;6.800;2023-02-28T09:02:32;6.73;;;2.20;;
17604;SDS011;8921;50.964;6.800;2023-02-28T09:05:00;5.17;;;2.50;;
17604;SDS011;8921;50.964;6.800;2023-02-28T09:07:29;8.10;;;3.27;;
17604;SDS011;8921;50.964;6.800;2023-02-28T09:09:57;6.20;;;2.40;;
17604;SDS011;8921;50.964;6.800;2023-02-28T09:12:26;4.53;;;2.83;;
17604;SDS011;8921;50.964;6.800;2023-02-28T09:14:54;4.60;;;2.23;;
17604;SDS011;8921;50.964;6.800;2023-02-28T09:17:22;4.17;;;2.50;;
17604;SDS011;8921;50.964;6.800;2023-02-28T09:19:50;8.27;;;1.90;;
17604;SDS011;8921;50.964;6.800;2023-02-28T09:22:19;5.10;;;2.30;;
17604;SDS011;8921;50.964;6.800;2023-02-28T09:24:47;6.00;;;2.33;;
17604;SDS011;8921;50.964;6.800;2023-02-28T09:27:15;4.27;;;1.87;;
17604;SDS011;8921;50.964;6.800;2023-02-28T09:29:43;4.23;;;2.17;;
17604;SDS011;8921;50.964;6.800;2023-02-28T09:32:12;5.50;;;2.30;;
17604;SDS011;8921;50.964;6.800;2023-02-28T09:34:40;8.23;;;2.10;;
17604;SDS011;8921;50.964;6.800;2023-02-28T09:37:08;5.13;;;2.50;;
17604;SDS011;8921;50.964;6.800;2023-02-28T09:39:37;6.33;;;2.53;;
17604;SDS011;8921;50.964;6.800;2023-02-28T09:42:11;5.27;;;2.43;;
17604;SDS011;8921;50.964;6.800;2023-02-28T09:44:36;5.70;;;2.33;;
17604;SDS011;8921;50.964;6.800;2023-02-28T09:52:54;7.00;;;2.67;;
17604;SDS011;8921;50.964;6.800;2023-02-28T09:57:56;5.17;;;2.40;;
17604;SDS011;8921;50.964;6.800;2023-02-28T10:00:28;4.90;;;2.47;;
17604;SDS011;8921;50.964;6.800;2023-02-28T10:08:42;4.90;;;2.67;;
17604;SDS011;8921;50.964;6.800;2023-02-28T10:11:09;4.77;;;2.20;;
17604;SDS011;8921;50.964;6.800;2023-02-28T10:13:48;4.43;;;2.47;;
17604;SDS011;8921;50.964;6.800;2023-02-28T10:16:14;5.67;;;2.30;;
17604;SDS011;8921;50.964;6.800;2023-02-28T10:18:44;4.43;;;2.57;;
17604;SDS011;8921;50.964;6.800;2023-02-28T10:21:30;5.50;;;2.10;;
17604;SDS011;8921;50.964;6.800;2023-02-28T10:23:57;7.00;;;2.37;;
17604;SDS011;8921;50.964;6.800;2023-02-28T10:26:22;5.70;;;2.53;;
17604;SDS011;8921;50.964;6.800;2023-02-28T10:28:51;15.53;;;2.67;;
17604;SDS011;8921;50.964;6.800;2023-02-28T10:31:19;6.53;;;2.57;;
17604;SDS011;8921;50.964;6.800;2023-02-28T10:33:47;5.90;;;3.10;;
17604;SDS011;8921;50.964;6.800;2023-02-28T10:36:17;6.23;;;2.80;;
17604;SDS011;8921;50.964;6.800;2023-02-28T10:38:44;6.95;;;3.35;;
17604;SDS011;8921;50.964;6.800;2023-02-28T10:43:43;6.70;;;2.03;;
17604;SDS011;8921;50.964;6.800;2023-02-28T10:46:13;5.30;;;2.67;;
17604;SDS011;8921;50.964;6.800;2023-02-28T10:49:20;6.17;;;2.60;;
17604;SDS011;8921;50.964;6.800;2023-02-28T10:52:13;4.83;;;2.50;;
17604;SDS011;8921;50.964;6.800;2023-02-28T10:54:41;7.20;;;2.63;;
17604;SDS011;8921;50.964;6.800;2023-02-28T10:57:23;5.90;;;2.50;;
17604;SDS011;8921;50.964;6.800;2023-02-28T10:59:53;4.87;;;2.57;;
17604;SDS011;8921;50.964;6.800;2023-02-28T11:05:01;5.20;;;2.57;;
17604;SDS011;8921;50.964;6.800;2023-02-28T11:07:29;5.30;;;2.93;;
17604;SDS011;8921;50.964;6.800;2023-02-28T11:09:57;4.80;;;2.97;;
17604;SDS011;8921;50.964;6.800;2023-02-28T11:12:27;7.17;;;2.93;;
17604;SDS011;8921;50.964;6.800;2023-02-28T11:15:01;5.93;;;3.27;;
17604;SDS011;8921;50.964;6.800;2023-02-28T11:17:29;5.70;;;2.73;;
17604;SDS011;8921;50.964;6.800;2023-02-28T11:19:57;5.10;;;3.10;;
17604;SDS011;8921;50.964;6.800;2023-02-28T11:22:28;4.20;;;2.50;;
17604;SDS011;8921;50.964;6.800;2023-02-28T11:25:00;7.50;;;3.30;;
17604;SDS011;8921;50.964;6.800;2023-02-28T11:29:58;11.00;;;3.33;;
17604;SDS011;8921;50.964;6.800;2023-02-28T11:32:27;7.07;;;2.90;;
17604;SDS011;8921;50.964;6.800;2023-02-28T11:37:32;6.93;;;3.20;;
17604;SDS011;8921;50.964;6.800;2023-02-28T11:40:01;8.17;;;2.90;;
17604;SDS011;8921;50.964;6.800;2023-02-28T11:45:21;7.53;;;3.30;;
17604;SDS011;8921;50.964;6.800;2023-02-28T11:47:47;5.10;;;2.90;;
17604;SDS011;8921;50.964;6.800;2023-02-28T11:50:20;5.97;;;3.57;;
17604;SDS011;8921;50.964;6.800;2023-02-28T11:55:27;5.97;;;3.37;;
17604;SDS011;8921;50.964;6.800;2023-02-28T11:58:01;10.73;;;3.80;;
17604;SDS011;8921;50.964;6.800;2023-02-28T12:16:37;5.67;;;3.60;;
17604;SDS011;8921;50.964;6.800;2023-02-28T12:27:13;8.47;;;4.50;;
17604;SDS011;8921;50.964;6.800;2023-02-28T12:29:43;9.90;;;3.20;;
17604;SDS011;8921;50.964;6.800;2023-02-28T12:32:13;6.13;;;3.53;;
17604;SDS011;8921;50.964;6.800;2023-02-28T12:34:44;5.13;;;2.93;;
17604;SDS011;8921;50.964;6.800;2023-02-28T12:37:13;5.73;;;2.97;;
17604;SDS011;8921;50.964;6.800;2023-02-28T12:39:41;6.30;;;3.80;;
17604;SDS011;8921;50.964;6.800;2023-02-28T12:42:11;5.60;;;3.43;;
17604;SDS011;8921;50.964;6.800;2023-02-28T12:44:56;8.43;;;3.90;;
17604;SDS011;8921;50.964;6.800;2023-02-28T12:47:22;5.93;;;2.80;;
17604;SDS011;8921;50.964;6.800;2023-02-28T12:49:56;5.13;;;3.23;;
17604;SDS011;8921;50.964;6.800;2023-02-28T12:52:27;5.60;;;3.30;;
17604;SDS011;8921;50.964;6.800;2023-02-28T12:54:54;7.07;;;3.80;;
17604;SDS011;8921;50.964;6.800;2023-02-28T12:57:38;6.33;;;3.37;;
17604;SDS011;8921;50.964;6.800;2023-02-28T13:00:12;8.63;;;3.40;;
17604;SDS011;8921;50.964;6.800;2023-02-28T13:10:49;7.43;;;3.80;;
17604;SDS011;8921;50.964;6.800;2023-02-28T13:13:18;15.33;;;4.37;;
17604;SDS011;8921;50.964;6.800;2023-02-28T13:15:58;8.07;;;4.37;;
17604;SDS011;8921;50.964;6.800;2023-02-28T13:18:44;9.73;;;4.37;;
17604;SDS011;8921;50.964;6.800;2023-02-28T13:21:28;6.43;;;4.13;;
17604;SDS011;8921;50.964;6.800;2023-02-28T13:23:56;7.87;;;4.07;;
17604;SDS011;8921;50.964;6.800;2023-02-28T13:27:10;8.87;;;5.07;;
17604;SDS011;8921;50.964;6.800;2023-02-28T13:28:59;16.03;;;5.80;;
17604;SDS011;8921;50.964;6.800;2023-02-28T13:31:26;10.20;;;4.50;;
17604;SDS011;8921;50.964;6.800;2023-02-28T13:36:26;13.43;;;6.50;;
17604;SDS011;8921;50.964;6.800;2023-02-28T13:39:03;14.80;;;4.87;;
17604;SDS011;8921;50.964;6.800;2023-02-28T13:46:30;6.13;;;3.90;;
17604;SDS011;8921;50.964;6.800;2023-02-28T13:54:19;7.57;;;3.70;;
17604;SDS011;8921;50.964;6.800;2023-02-28T13:57:06;6.40;;;3.60;;
17604;SDS011;8921;50.964;6.800;2023-02-28T14:05:01;5.63;;;3.70;;
17604;SDS011;8921;50.964;6.800;2023-02-28T14:07:40;6.90;;;4.50;;
17604;SDS011;8921;50.964;6.800;2023-02-28T14:10:15;10.80;;;4.60;;
17604;SDS011;8921;50.964;6.800;2023-02-28T14:18:01;8.13;;;3.80;;
17604;SDS011;8921;50.964;6.800;2023-02-28T14:20:30;7.10;;;3.97;;
17604;SDS011;8921;50.964;6.800;2023-02-28T14:23:06;5.87;;;3.87;;
17604;SDS011;8921;50.964;6.800;2023-02-28T14:28:54;7.80;;;3.60;;
17604;SDS011;8921;50.964;6.800;2023-02-28T14:31:41;6.80;;;3.47;;
17604;SDS011;8921;50.964;6.800;2023-02-28T14:36:53;6.83;;;3.90;;
17604;SDS011;8921;50.964;6.800;2023-02-28T14:39:22;6.80;;;4.23;;
17604;SDS011;8921;50.964;6.800;2023-02-28T14:41:50;6.47;;;3.30;;
17604;SDS011;8921;50.964;6.800;2023-02-28T14:44:21;6.70;;;3.37;;
17604;SDS011;8921;50.964;6.800;2023-02-28T14:46:48;7.03;;;3.53;;
17604;SDS011;8921;50.964;6.800;2023-02-28T14:52:12;9.47;;;3.90;;
17604;SDS011;8921;50.964;6.800;2023-02-28T14:54:51;9.20;;;4.43;;
17604;SDS011;8921;50.964;6.800;2023-02-28T14:57:29;7.27;;;4.30;;
17604;SDS011;8921;50.964;6.800;2023-02-28T15:02:40;7.53;;;5.07;;
17604;SDS011;8921;50.964;6.800;2023-02-28T15:07:45;14.30;;;6.20;;
17604;SDS011;8921;50.964;6.800;2023-02-28T15:15:34;7.93;;;5.27;;
17604;SDS011;8921;50.964;6.800;2023-02-28T15:18:10;6.43;;;4.20;;
17604;SDS011;8921;50.964;6.800;2023-02-28T15:20:36;8.10;;;4.70;;
17604;SDS011;8921;50.964;6.800;2023-02-28T15:23:04;16.27;;;5.20;;
17604;SDS011;8921;50.964;6.800;2023-02-28T15:25:32;8.77;;;4.40;;
17604;SDS011;8921;50.964;6.800;2023-02-28T15:28:01;6.80;;;3.83;;
17604;SDS011;8921;50.964;6.800;2023-02-28T15:30:30;7.20;;;4.50;;
17604;SDS011;8921;50.964;6.800;2023-02-28T15:35:34;6.63;;;3.73;;
17604;SDS011;8921;50.964;6.800;2023-02-28T15:38:04;6.27;;;3.90;;
17604;SDS011;8921;50.964;6.800;2023-02-28T15:40:33;7.43;;;4.40;;
17604;SDS011;8921;50.964;6.800;2023-02-28T15:45:35;16.43;;;4.77;;
17604;SDS011;8921;50.964;6.800;2023-02-28T15:48:05;6.73;;;3.70;;
17604;SDS011;8921;50.964;6.800;2023-02-28T15:50:33;12.83;;;4.37;;
17604;SDS011;8921;50.964;6.800;2023-02-28T15:53:01;8.57;;;5.00;;
17604;SDS011;8921;50.964;6.800;2023-02-28T15:55:30;6.53;;;4.27;;
17604;SDS011;8921;50.964;6.800;2023-02-28T15:58:00;8.70;;;4.63;;
17604;SDS011;8921;50.964;6.800;2023-02-28T16:00:28;8.43;;;4.37;;
17604;SDS011;8921;50.964;6.800;2023-02-28T16:02:55;8.03;;;4.73;;
17604;SDS011;8921;50.964;6.800;2023-02-28T16:07:55;7.87;;;5.00;;
17604;SDS011;8921;50.964;6.800;2023-02-28T16:10:23;6.97;;;4.67;;
17604;SDS011;8921;50.964;6.800;2023-02-28T16:12:52;6.53;;;4.30;;
17604;SDS011;8921;50.964;6.800;2023-02-28T16:15:27;7.40;;;3.87;;
17604;SDS011;8921;50.964;6.800;2023-02-28T16:17:54;10.20;;;3.60;;
17604;SDS011;8921;50.964;6.800;2023-02-28T16:20:26;9.73;;;3.77;;
17604;SDS011;8921;50.964;6.800;2023-02-28T16:22:53;9.80;;;5.97;;
17604;SDS011;8921;50.964;6.800;2023-02-28T16:25:29;6.30;;;3.63;;
17604;SDS011;8921;50.964;6.800;2023-02-28T16:27:55;10.10;;;4.50;;
17604;SDS011;8921;50.964;6.800;2023-02-28T16:30:25;5.70;;;3.47;;
17604;SDS011;8921;50.964;6.800;2023-02-28T16:32:52;7.37;;;4.60;;
17604;SDS011;8921;50.964;6.800;2023-02-28T16:35:20;9.70;;;5.83;;
17604;SDS011;8921;50.964;6.800;2023-02-28T16:37:52;6.50;;;4.00;;
17604;SDS011;8921;50.964;6.800;2023-02-28T16:40:21;7.23;;;3.63;;
17604;SDS011;8921;50.964;6.800;2023-02-28T16:42:49;7.07;;;4.00;;
17604;SDS011;8921;50.964;6.800;2023-02-28T16:45:20;5.43;;;3.33;;
17604;SDS011;8921;50.964;6.800;2023-02-28T16:47:45;8.87;;;3.57;;
17604;SDS011;8921;50.964;6.800;2023-02-28T16:50:17;5.83;;;3.80;;
17604;SDS011;8921;50.964;6.800;2023-02-28T16:52:45;7.00;;;4.40;;
17604;SDS011;8921;50.964;6.800;2023-02-28T16:55:13;6.27;;;3.93;;
17604;SDS011;8921;50.964;6.800;2023-02-28T16:57:41;9.63;;;4.47;;
17604;SDS011;8921;50.964;6.800;2023-02-28T17:00:11;6.40;;;4.17;;
17604;SDS011;8921;50.964;6.800;2023-02-28T17:02:38;9.60;;;4.57;;
17604;SDS011;8921;50.964;6.800;2023-02-28T17:05:06;6.20;;;3.33;;
17604;SDS011;8921;50.964;6.800;2023-02-28T17:07:35;7.47;;;3.93;;
17604;SDS011;8921;50.964;6.800;2023-02-28T17:10:09;6.30;;;3.27;;
17604;SDS011;8921;50.964;6.800;2023-02-28T17:12:31;7.00;;;4.70;;
17604;SDS011;8921;50.964;6.800;2023-02-28T17:14:59;6.33;;;3.80;;
17604;SDS011;8921;50.964;6.800;2023-02-28T17:17:28;7.90;;;3.80;;
17604;SDS011;8921;50.964;6.800;2023-02-28T17:19:56;6.10;;;3.20;;
17604;SDS011;8921;50.964;6.800;2023-02-28T17:22:24;6.63;;;3.40;;
17604;SDS011;8921;50.964;6.800;2023-02-28T17:24:53;10.80;;;4.20;;
17604;SDS011;8921;50.964;6.800;2023-02-28T17:27:21;6.97;;;3.50;;
17604;SDS011;8921;50.964;6.800;2023-02-28T17:29:49;7.80;;;4.20;;
17604;SDS011;8921;50.964;6.800;2023-02-28T17:32:18;10.17;;;4.50;;
17604;SDS011;8921;50.964;6.800;2023-02-28T17:34:46;6.33;;;3.73;;
17604;SDS011;8921;50.964;6.800;2023-02-28T17:37:14;5.50;;;3.43;;
17604;SDS011;8921;50.964;6.800;2023-02-28T17:39:43;6.17;;;3.87;;
17604;SDS011;8921;50.964;6.800;2023-02-28T17:42:11;6.17;;;3.60;;